PWSweather.com
Personal Weather Stations
Station Observations
LOBIOS
Galicia, LobiosES

GaliciaLobiosES

Lat: 41.895, Lon: -8.091667

Elevation: 1597

Station Type: Automática/Davis Vantage Pro2 Plus

www.meteolobios.es

High Low Average
Temperature 47.6°F8.7°C 30.9°F-0.6°C 38.7°F3.7°C
Dew Point 43.9°F6.6°C 29.6°F-1.3°C 36.5°F2.5°C
Winds 5.8 mph 9.3 kmh Calm Calm 1.0 mph SE1.6 kmh SE
Wind Gusts 9.2 mph14.8 kmh -- 3.0 mph4.8 kmh
Humidity 96% 80% 92%
Pressure 30.48 in1032.2 mb 30.35 in1027.8 mb -
Precipitation 0.04 in1.0 mm - -
Hour Temp Dew Point Humidity Winds Wind Gusts Pressure Precip Precip Rate Daily Precip Total
12:00 AM 34.3°F1.3°C 32.2°F0.1°C 92% Calm Calm -- 30.35 in1027.8 mb - 0.00 in0.0 mm 0.00 in0.0 mm
12:10 AM 34.3°F1.3°C 32.5°F0.3°C 93% 1.1 mph NE1.8 kmh NE 2.3 mph3.7 kmh 30.35 in1027.8 mb - 0.00 in0.0 mm 0.00 in0.0 mm
12:20 AM 34.2°F1.2°C 32.4°F0.2°C 93% 1.1 mph NE1.8 kmh NE 2.3 mph3.7 kmh 30.36 in1028.1 mb - 0.00 in0.0 mm 0.00 in0.0 mm
12:30 AM 34.1°F1.2°C 32.3°F0.2°C 93% Calm Calm -- 30.36 in1028.1 mb - 0.00 in0.0 mm 0.00 in0.0 mm
12:40 AM 33.9°F1.1°C 32.1°F0.1°C 93% 1.1 mph NE1.8 kmh NE 2.3 mph3.7 kmh 30.36 in1028.1 mb - 0.00 in0.0 mm 0.00 in0.0 mm
12:50 AM 33.8°F1.0°C 32.0°F0.0°C 93% 2.3 mph NE3.7 kmh NE 2.3 mph3.7 kmh 30.36 in1028.1 mb - 0.00 in0.0 mm 0.00 in0.0 mm
01:00 AM 33.8°F1.0°C 32.0°F0.0°C 93% 1.1 mph NE1.8 kmh NE 2.3 mph3.7 kmh 30.36 in1028.1 mb - 0.00 in0.0 mm 0.00 in0.0 mm
01:10 AM 33.8°F1.0°C 32.0°F0.0°C 93% Calm Calm -- 30.36 in1028.1 mb - 0.00 in0.0 mm 0.00 in0.0 mm
01:20 AM 33.7°F0.9°C 31.9°F-0.1°C 93% Calm Calm -- 30.36 in1028.1 mb - 0.00 in0.0 mm 0.00 in0.0 mm
01:30 AM 33.5°F0.8°C 31.7°F-0.2°C 93% Calm Calm -- 30.36 in1028.1 mb - 0.00 in0.0 mm 0.00 in0.0 mm
01:40 AM 33.3°F0.7°C 31.5°F-0.3°C 93% 1.1 mph NE1.8 kmh NE 2.3 mph3.7 kmh 30.36 in1028.1 mb - 0.00 in0.0 mm 0.00 in0.0 mm
01:50 AM 33.2°F0.7°C 31.4°F-0.3°C 93% 1.1 mph NE1.8 kmh NE 2.3 mph3.7 kmh 30.36 in1028.1 mb - 0.00 in0.0 mm 0.00 in0.0 mm
02:00 AM 33.1°F0.6°C 31.3°F-0.4°C 93% 1.1 mph NE1.8 kmh NE 1.1 mph1.8 kmh 30.36 in1028.1 mb - 0.00 in0.0 mm 0.00 in0.0 mm
02:10 AM 33.1°F0.6°C 31.3°F-0.4°C 93% Calm Calm 1.1 mph1.8 kmh 30.36 in1028.1 mb - 0.00 in0.0 mm 0.00 in0.0 mm
02:20 AM 33.0°F0.6°C 31.2°F-0.4°C 93% 1.1 mph NE1.8 kmh NE 2.3 mph3.7 kmh 30.35 in1027.8 mb - 0.00 in0.0 mm 0.00 in0.0 mm
02:30 AM 33.0°F0.6°C 31.2°F-0.4°C 93% 1.1 mph NE1.8 kmh NE 2.3 mph3.7 kmh 30.35 in1027.8 mb - 0.00 in0.0 mm 0.00 in0.0 mm
02:40 AM 32.9°F0.5°C 31.1°F-0.5°C 93% Calm Calm 1.1 mph1.8 kmh 30.35 in1027.8 mb - 0.00 in0.0 mm 0.00 in0.0 mm
02:50 AM 32.8°F0.4°C 31.0°F-0.6°C 93% Calm Calm -- 30.35 in1027.8 mb - 0.00 in0.0 mm 0.00 in0.0 mm
03:00 AM 32.7°F0.4°C 30.9°F-0.6°C 93% Calm Calm -- 30.35 in1027.8 mb - 0.00 in0.0 mm 0.00 in0.0 mm
03:10 AM 32.6°F0.3°C 30.8°F-0.7°C 93% Calm Calm -- 30.35 in1027.8 mb - 0.00 in0.0 mm 0.00 in0.0 mm
03:20 AM 32.4°F0.2°C 30.6°F-0.8°C 93% Calm Calm -- 30.35 in1027.8 mb - 0.00 in0.0 mm 0.00 in0.0 mm
03:30 AM 32.4°F0.2°C 30.9°F-0.6°C 94% Calm Calm -- 30.36 in1028.1 mb - 0.00 in0.0 mm 0.00 in0.0 mm
03:40 AM 32.4°F0.2°C 30.9°F-0.6°C 94% Calm Calm -- 30.36 in1028.1 mb - 0.00 in0.0 mm 0.00 in0.0 mm
03:50 AM 32.4°F0.2°C 30.9°F-0.6°C 94% Calm Calm -- 30.36 in1028.1 mb - 0.00 in0.0 mm 0.00 in0.0 mm
04:00 AM 32.3°F0.2°C 30.8°F-0.7°C 94% 1.1 mph NE1.8 kmh NE 2.3 mph3.7 kmh 30.37 in1028.4 mb - 0.00 in0.0 mm 0.00 in0.0 mm
04:10 AM 32.3°F0.2°C 30.8°F-0.7°C 94% 1.1 mph NE1.8 kmh NE 2.3 mph3.7 kmh 30.36 in1028.1 mb - 0.00 in0.0 mm 0.00 in0.0 mm
04:20 AM 32.2°F0.1°C 30.7°F-0.7°C 94% 1.1 mph NE1.8 kmh NE 2.3 mph3.7 kmh 30.36 in1028.1 mb - 0.00 in0.0 mm 0.00 in0.0 mm
04:30 AM 32.1°F0.1°C 30.6°F-0.8°C 94% Calm Calm 1.1 mph1.8 kmh 30.36 in1028.1 mb - 0.01 in0.3 mm 0.01 in0.3 mm
04:40 AM 32.0°F0.0°C 30.5°F-0.8°C 94% 1.1 mph NE1.8 kmh NE 2.3 mph3.7 kmh 30.37 in1028.4 mb - 0.00 in0.0 mm 0.01 in0.3 mm
04:50 AM 31.9°F-0.1°C 30.4°F-0.9°C 94% Calm Calm 2.3 mph3.7 kmh 30.36 in1028.1 mb - 0.00 in0.0 mm 0.01 in0.3 mm
05:00 AM 31.9°F-0.1°C 30.3°F-0.9°C 94% 1.1 mph NE1.8 kmh NE 2.3 mph3.7 kmh 30.36 in1028.1 mb - 0.00 in0.0 mm 0.01 in0.3 mm
05:10 AM 31.9°F-0.1°C 30.4°F-0.9°C 94% Calm Calm -- 30.36 in1028.1 mb - 0.00 in0.0 mm 0.01 in0.3 mm
05:20 AM 32.0°F0.0°C 30.5°F-0.8°C 94% Calm Calm -- 30.37 in1028.4 mb - 0.00 in0.0 mm 0.01 in0.3 mm
05:30 AM 31.9°F-0.1°C 30.4°F-0.9°C 94% Calm Calm -- 30.37 in1028.4 mb - 0.00 in0.0 mm 0.01 in0.3 mm
05:40 AM 31.8°F-0.1°C 30.3°F-0.9°C 94% Calm Calm -- 30.37 in1028.4 mb - 0.00 in0.0 mm 0.01 in0.3 mm
05:50 AM 31.9°F-0.1°C 30.4°F-0.9°C 94% 1.1 mph NE1.8 kmh NE 1.1 mph1.8 kmh 30.37 in1028.4 mb - 0.00 in0.0 mm 0.01 in0.3 mm
06:00 AM 32.1°F0.1°C 30.6°F-0.8°C 94% Calm Calm -- 30.37 in1028.4 mb - 0.00 in0.0 mm 0.01 in0.3 mm
06:10 AM 32.1°F0.1°C 30.5°F-0.8°C 94% Calm Calm -- 30.37 in1028.4 mb - 0.00 in0.0 mm 0.01 in0.3 mm
06:20 AM 32.0°F0.0°C 30.5°F-0.8°C 94% 1.1 mph NE1.8 kmh NE 2.3 mph3.7 kmh 30.38 in1028.8 mb - 0.00 in0.0 mm 0.01 in0.3 mm
06:30 AM 31.9°F-0.1°C 30.4°F-0.9°C 94% 1.1 mph NE1.8 kmh NE 2.3 mph3.7 kmh 30.37 in1028.4 mb - 0.00 in0.0 mm 0.01 in0.3 mm
06:40 AM 31.9°F-0.1°C 30.4°F-0.9°C 94% 1.1 mph NE1.8 kmh NE 2.3 mph3.7 kmh 30.38 in1028.8 mb - 0.00 in0.0 mm 0.01 in0.3 mm
06:50 AM 31.9°F-0.1°C 30.4°F-0.9°C 94% 3.5 mph NE5.6 kmh NE 3.5 mph5.6 kmh 30.38 in1028.8 mb - 0.00 in0.0 mm 0.01 in0.3 mm
07:00 AM 31.9°F-0.1°C 30.4°F-0.9°C 94% Calm Calm 1.1 mph1.8 kmh 30.38 in1028.8 mb - 0.00 in0.0 mm 0.01 in0.3 mm
07:10 AM 31.8°F-0.1°C 30.5°F-0.8°C 95% Calm Calm -- 30.39 in1029.1 mb - 0.00 in0.0 mm 0.01 in0.3 mm
07:20 AM 31.8°F-0.1°C 30.3°F-0.9°C 94% Calm Calm -- 30.39 in1029.1 mb - 0.00 in0.0 mm 0.01 in0.3 mm
07:30 AM 31.7°F-0.2°C 30.1°F-1.1°C 94% Calm Calm -- 30.39 in1029.1 mb - 0.00 in0.0 mm 0.01 in0.3 mm
07:40 AM 31.5°F-0.3°C 30.2°F-1.0°C 95% Calm Calm -- 30.40 in1029.5 mb - 0.00 in0.0 mm 0.01 in0.3 mm
07:50 AM 31.6°F-0.2°C 30.3°F-0.9°C 95% Calm Calm 1.1 mph1.8 kmh 30.41 in1029.8 mb - 0.00 in0.0 mm 0.01 in0.3 mm
08:00 AM 31.5°F-0.3°C 30.2°F-1.0°C 95% 2.3 mph NE3.7 kmh NE 3.5 mph5.6 kmh 30.41 in1029.8 mb - 0.00 in0.0 mm 0.01 in0.3 mm
08:10 AM 31.4°F-0.3°C 30.1°F-1.1°C 95% Calm Calm -- 30.41 in1029.8 mb - 0.00 in0.0 mm 0.01 in0.3 mm
08:20 AM 31.3°F-0.4°C 30.0°F-1.1°C 95% Calm Calm -- 30.41 in1029.8 mb - 0.00 in0.0 mm 0.01 in0.3 mm
08:30 AM 31.2°F-0.4°C 29.9°F-1.2°C 95% Calm Calm -- 30.41 in1029.8 mb - 0.00 in0.0 mm 0.01 in0.3 mm
08:40 AM 31.2°F-0.4°C 29.9°F-1.2°C 95% Calm Calm -- 30.41 in1029.8 mb - 0.00 in0.0 mm 0.01 in0.3 mm
08:50 AM 31.3°F-0.4°C 30.0°F-1.1°C 95% 2.3 mph NE3.7 kmh NE 3.5 mph5.6 kmh 30.42 in1030.1 mb - 0.00 in0.0 mm 0.01 in0.3 mm
09:00 AM 31.2°F-0.4°C 29.9°F-1.2°C 95% 1.1 mph NE1.8 kmh NE 2.3 mph3.7 kmh 30.42 in1030.1 mb - 0.00 in0.0 mm 0.01 in0.3 mm
09:10 AM 31.1°F-0.5°C 29.8°F-1.2°C 95% 1.1 mph NE1.8 kmh NE 1.1 mph1.8 kmh 30.42 in1030.1 mb - 0.00 in0.0 mm 0.01 in0.3 mm
09:20 AM 31.0°F-0.6°C 29.7°F-1.3°C 95% Calm Calm -- 30.43 in1030.5 mb - 0.00 in0.0 mm 0.01 in0.3 mm
09:30 AM 30.9°F-0.6°C 29.6°F-1.3°C 95% Calm Calm -- 30.43 in1030.5 mb - 0.00 in0.0 mm 0.01 in0.3 mm
09:40 AM 31.0°F-0.6°C 29.7°F-1.3°C 95% Calm Calm -- 30.44 in1030.8 mb - 0.00 in0.0 mm 0.01 in0.3 mm
09:50 AM 31.1°F-0.5°C 29.8°F-1.2°C 95% Calm Calm -- 30.43 in1030.5 mb - 0.00 in0.0 mm 0.01 in0.3 mm
10:00 AM 31.3°F-0.4°C 30.0°F-1.1°C 95% Calm Calm -- 30.44 in1030.8 mb - 0.00 in0.0 mm 0.01 in0.3 mm
10:10 AM 31.5°F-0.3°C 30.2°F-1.0°C 95% Calm Calm -- 30.45 in1031.2 mb - 0.00 in0.0 mm 0.01 in0.3 mm
10:20 AM 31.6°F-0.2°C 30.4°F-0.9°C 95% 1.1 mph NE1.8 kmh NE 2.3 mph3.7 kmh 30.45 in1031.2 mb - 0.00 in0.0 mm 0.01 in0.3 mm
10:30 AM 31.8°F-0.1°C 30.5°F-0.8°C 95% Calm Calm -- 30.45 in1031.2 mb - 0.00 in0.0 mm 0.01 in0.3 mm
10:40 AM 32.5°F0.3°C 31.3°F-0.4°C 95% Calm Calm -- 30.45 in1031.2 mb - 0.00 in0.0 mm 0.01 in0.3 mm
10:50 AM 33.2°F0.7°C 31.9°F-0.1°C 95% Calm Calm -- 30.45 in1031.2 mb - 0.00 in0.0 mm 0.01 in0.3 mm
11:00 AM 33.9°F1.1°C 32.6°F0.3°C 95% Calm Calm -- 30.46 in1031.5 mb - 0.00 in0.0 mm 0.01 in0.3 mm
11:10 AM 34.3°F1.3°C 33.0°F0.6°C 95% Calm Calm 1.1 mph1.8 kmh 30.45 in1031.2 mb - 0.00 in0.0 mm 0.01 in0.3 mm
11:20 AM 34.6°F1.4°C 33.3°F0.7°C 95% Calm Calm -- 30.45 in1031.2 mb - 0.00 in0.0 mm 0.01 in0.3 mm
11:30 AM 34.9°F1.6°C 33.7°F0.9°C 95% Calm Calm 1.1 mph1.8 kmh 30.45 in1031.2 mb - 0.00 in0.0 mm 0.01 in0.3 mm
11:40 AM 36.1°F2.3°C 35.0°F1.7°C 96% Calm Calm -- 30.46 in1031.5 mb - 0.00 in0.0 mm 0.01 in0.3 mm
11:50 AM 37.2°F2.9°C 35.9°F2.2°C 95% 1.1 mph NE1.8 kmh NE 2.3 mph3.7 kmh 30.46 in1031.5 mb - 0.00 in0.0 mm 0.01 in0.3 mm
12:00 PM 37.6°F3.1°C 36.3°F2.4°C 95% Calm Calm 1.1 mph1.8 kmh 30.46 in1031.5 mb - 0.00 in0.0 mm 0.01 in0.3 mm
12:10 PM 38.4°F3.6°C 37.1°F2.8°C 95% Calm Calm -- 30.46 in1031.5 mb - 0.00 in0.0 mm 0.01 in0.3 mm
12:20 PM 40.0°F4.4°C 38.4°F3.6°C 94% Calm Calm -- 30.46 in1031.5 mb - 0.00 in0.0 mm 0.01 in0.3 mm
12:30 PM 41.0°F5.0°C 39.2°F4.0°C 93% Calm Calm -- 30.46 in1031.5 mb - 0.00 in0.0 mm 0.01 in0.3 mm
12:40 PM 41.9°F5.5°C 39.8°F4.3°C 92% Calm Calm -- 30.46 in1031.5 mb - 0.00 in0.0 mm 0.01 in0.3 mm
12:50 PM 42.3°F5.7°C 39.6°F4.2°C 90% Calm Calm -- 30.45 in1031.2 mb - 0.00 in0.0 mm 0.01 in0.3 mm
01:00 PM 42.6°F5.9°C 39.6°F4.2°C 89% 1.1 mph NE1.8 kmh NE 2.3 mph3.7 kmh 30.45 in1031.2 mb - 0.00 in0.0 mm 0.01 in0.3 mm
01:10 PM 43.2°F6.2°C 40.2°F4.6°C 89% 3.5 mph SW5.6 kmh SW 5.8 mph9.3 kmh 30.44 in1030.8 mb - 0.00 in0.0 mm 0.01 in0.3 mm
01:20 PM 43.4°F6.3°C 40.1°F4.5°C 88% Calm Calm 1.1 mph1.8 kmh 30.45 in1031.2 mb - 0.00 in0.0 mm 0.01 in0.3 mm
01:30 PM 43.8°F6.6°C 40.2°F4.6°C 87% Calm Calm -- 30.45 in1031.2 mb - 0.00 in0.0 mm 0.01 in0.3 mm
01:40 PM 44.1°F6.7°C 40.1°F4.5°C 86% Calm Calm 3.5 mph5.6 kmh 30.44 in1030.8 mb - 0.00 in0.0 mm 0.01 in0.3 mm
01:50 PM 44.3°F6.8°C 39.8°F4.3°C 84% 1.1 mph SW1.8 kmh SW 4.6 mph7.4 kmh 30.44 in1030.8 mb - 0.00 in0.0 mm 0.01 in0.3 mm
02:00 PM 44.7°F7.1°C 40.2°F4.6°C 84% 2.3 mph SW3.7 kmh SW 4.6 mph7.4 kmh 30.44 in1030.8 mb - 0.00 in0.0 mm 0.01 in0.3 mm
02:10 PM 45.1°F7.3°C 40.2°F4.6°C 83% 2.3 mph WSW3.7 kmh WSW 3.5 mph5.6 kmh 30.44 in1030.8 mb - 0.00 in0.0 mm 0.01 in0.3 mm
02:20 PM 45.6°F7.6°C 40.8°F4.9°C 83% Calm Calm 1.1 mph1.8 kmh 30.43 in1030.5 mb - 0.00 in0.0 mm 0.01 in0.3 mm
02:30 PM 46.0°F7.8°C 41.1°F5.1°C 83% 1.1 mph SW1.8 kmh SW 4.6 mph7.4 kmh 30.43 in1030.5 mb - 0.00 in0.0 mm 0.01 in0.3 mm
02:40 PM 46.5°F8.1°C 41.3°F5.2°C 82% 1.1 mph WSW1.8 kmh WSW 3.5 mph5.6 kmh 30.42 in1030.1 mb - 0.00 in0.0 mm 0.01 in0.3 mm
02:50 PM 46.8°F8.2°C 41.3°F5.2°C 81% 2.3 mph WSW3.7 kmh WSW 5.8 mph9.3 kmh 30.42 in1030.1 mb - 0.00 in0.0 mm 0.01 in0.3 mm
03:00 PM 46.9°F8.3°C 41.1°F5.1°C 80% 4.6 mph WSW7.4 kmh WSW 8.1 mph13.0 kmh 30.42 in1030.1 mb - 0.00 in0.0 mm 0.01 in0.3 mm
03:10 PM 46.9°F8.3°C 41.0°F5.0°C 80% 1.1 mph SW1.8 kmh SW 4.6 mph7.4 kmh 30.42 in1030.1 mb - 0.00 in0.0 mm 0.01 in0.3 mm
03:20 PM 47.0°F8.3°C 41.8°F5.4°C 82% Calm Calm 1.1 mph1.8 kmh 30.41 in1029.8 mb - 0.00 in0.0 mm 0.01 in0.3 mm
03:30 PM 47.2°F8.4°C 42.3°F5.7°C 83% 3.5 mph W5.6 kmh W 6.9 mph11.1 kmh 30.41 in1029.8 mb - 0.00 in0.0 mm 0.01 in0.3 mm
03:40 PM 47.3°F8.5°C 42.7°F5.9°C 84% 3.5 mph WSW5.6 kmh WSW 8.1 mph13.0 kmh 30.41 in1029.8 mb - 0.00 in0.0 mm 0.01 in0.3 mm
03:50 PM 47.4°F8.6°C 43.1°F6.2°C 85% 2.3 mph W3.7 kmh W 2.3 mph3.7 kmh 30.41 in1029.8 mb - 0.00 in0.0 mm 0.01 in0.3 mm
04:00 PM 47.4°F8.6°C 43.4°F6.3°C 86% Calm Calm 1.1 mph1.8 kmh 30.41 in1029.8 mb - 0.00 in0.0 mm 0.01 in0.3 mm
04:10 PM 47.4°F8.6°C 43.4°F6.3°C 86% 3.5 mph WSW5.6 kmh WSW 5.8 mph9.3 kmh 30.41 in1029.8 mb - 0.00 in0.0 mm 0.01 in0.3 mm
04:20 PM 47.5°F8.6°C 43.5°F6.4°C 86% 2.3 mph WSW3.7 kmh WSW 4.6 mph7.4 kmh 30.41 in1029.8 mb - 0.00 in0.0 mm 0.01 in0.3 mm
04:30 PM 47.6°F8.7°C 43.9°F6.6°C 87% 1.1 mph SW1.8 kmh SW 4.6 mph7.4 kmh 30.40 in1029.5 mb - 0.00 in0.0 mm 0.01 in0.3 mm
04:40 PM 47.6°F8.7°C 43.9°F6.6°C 87% 2.3 mph WSW3.7 kmh WSW 3.5 mph5.6 kmh 30.41 in1029.8 mb - 0.00 in0.0 mm 0.01 in0.3 mm
04:50 PM 47.6°F8.7°C 43.9°F6.6°C 87% 1.1 mph W1.8 kmh W 4.6 mph7.4 kmh 30.41 in1029.8 mb - 0.00 in0.0 mm 0.01 in0.3 mm
05:00 PM 47.4°F8.6°C 43.7°F6.5°C 87% 4.6 mph SW7.4 kmh SW 6.9 mph11.1 kmh 30.42 in1030.1 mb - 0.00 in0.0 mm 0.01 in0.3 mm
05:10 PM 47.1°F8.4°C 43.4°F6.3°C 87% 3.5 mph SW5.6 kmh SW 5.8 mph9.3 kmh 30.42 in1030.1 mb - 0.00 in0.0 mm 0.01 in0.3 mm
05:20 PM 46.8°F8.2°C 43.1°F6.2°C 87% Calm Calm -- 30.42 in1030.1 mb - 0.00 in0.0 mm 0.01 in0.3 mm
05:30 PM 46.6°F8.1°C 43.2°F6.2°C 88% 1.1 mph WSW1.8 kmh WSW 3.5 mph5.6 kmh 30.43 in1030.5 mb - 0.00 in0.0 mm 0.01 in0.3 mm
05:40 PM 46.3°F7.9°C 42.9°F6.1°C 88% 4.6 mph WSW7.4 kmh WSW 8.1 mph13.0 kmh 30.43 in1030.5 mb - 0.00 in0.0 mm 0.01 in0.3 mm
05:50 PM 46.0°F7.8°C 42.6°F5.9°C 88% 4.6 mph SW7.4 kmh SW 8.1 mph13.0 kmh 30.44 in1030.8 mb - 0.00 in0.0 mm 0.01 in0.3 mm
06:00 PM 45.7°F7.6°C 42.6°F5.9°C 89% 5.8 mph SW9.3 kmh SW 9.2 mph14.8 kmh 30.44 in1030.8 mb - 0.00 in0.0 mm 0.01 in0.3 mm
06:10 PM 45.4°F7.4°C 42.6°F5.9°C 90% 3.5 mph WSW5.6 kmh WSW 6.9 mph11.1 kmh 30.43 in1030.5 mb - 0.00 in0.0 mm 0.01 in0.3 mm
06:20 PM 45.2°F7.3°C 42.4°F5.8°C 90% 2.3 mph WSW3.7 kmh WSW 4.6 mph7.4 kmh 30.43 in1030.5 mb - 0.00 in0.0 mm 0.01 in0.3 mm
06:30 PM 45.0°F7.2°C 42.3°F5.7°C 90% 1.1 mph SW1.8 kmh SW 2.3 mph3.7 kmh 30.44 in1030.8 mb - 0.00 in0.0 mm 0.01 in0.3 mm
06:40 PM 44.9°F7.2°C 42.4°F5.8°C 91% 5.8 mph SW9.3 kmh SW 6.9 mph11.1 kmh 30.43 in1030.5 mb - 0.00 in0.0 mm 0.01 in0.3 mm
06:50 PM 44.7°F7.1°C 42.2°F5.7°C 91% 3.5 mph SW5.6 kmh SW 5.8 mph9.3 kmh 30.43 in1030.5 mb - 0.00 in0.0 mm 0.01 in0.3 mm
07:00 PM 44.5°F6.9°C 42.0°F5.6°C 91% 1.1 mph WSW1.8 kmh WSW 6.9 mph11.1 kmh 30.44 in1030.8 mb - 0.00 in0.0 mm 0.01 in0.3 mm
07:10 PM 44.5°F6.9°C 42.3°F5.7°C 92% 4.6 mph SW7.4 kmh SW 5.8 mph9.3 kmh 30.44 in1030.8 mb - 0.00 in0.0 mm 0.01 in0.3 mm
07:20 PM 44.4°F6.9°C 42.2°F5.7°C 92% 1.1 mph WSW1.8 kmh WSW 2.3 mph3.7 kmh 30.45 in1031.2 mb - 0.00 in0.0 mm 0.01 in0.3 mm
07:30 PM 44.4°F6.9°C 42.2°F5.7°C 92% 4.6 mph SW7.4 kmh SW 5.8 mph9.3 kmh 30.44 in1030.8 mb - 0.00 in0.0 mm 0.01 in0.3 mm
07:40 PM 44.3°F6.8°C 42.5°F5.8°C 93% Calm Calm 4.6 mph7.4 kmh 30.44 in1030.8 mb - 0.00 in0.0 mm 0.01 in0.3 mm
07:50 PM 44.4°F6.9°C 42.5°F5.8°C 93% Calm Calm 3.5 mph5.6 kmh 30.44 in1030.8 mb - 0.00 in0.0 mm 0.01 in0.3 mm
08:00 PM 44.3°F6.8°C 42.4°F5.8°C 93% Calm Calm 1.1 mph1.8 kmh 30.45 in1031.2 mb - 0.00 in0.0 mm 0.01 in0.3 mm
08:10 PM 44.3°F6.8°C 42.4°F5.8°C 93% 2.3 mph SW3.7 kmh SW 5.8 mph9.3 kmh 30.45 in1031.2 mb - 0.00 in0.0 mm 0.01 in0.3 mm
08:20 PM 44.3°F6.8°C 42.4°F5.8°C 93% 2.3 mph SW3.7 kmh SW 5.8 mph9.3 kmh 30.45 in1031.2 mb - 0.00 in0.0 mm 0.01 in0.3 mm
08:30 PM 44.3°F6.8°C 42.4°F5.8°C 93% 4.6 mph SW7.4 kmh SW 5.8 mph9.3 kmh 30.46 in1031.5 mb - 0.00 in0.0 mm 0.01 in0.3 mm
08:40 PM 44.3°F6.8°C 42.7°F5.9°C 94% 3.5 mph WSW5.6 kmh WSW 6.9 mph11.1 kmh 30.45 in1031.2 mb - 0.01 in0.3 mm 0.02 in0.5 mm
08:50 PM 44.3°F6.8°C 42.7°F5.9°C 94% 5.8 mph SW9.3 kmh SW 9.2 mph14.8 kmh 30.46 in1031.5 mb - 0.00 in0.0 mm 0.02 in0.5 mm
09:00 PM 44.3°F6.8°C 42.7°F5.9°C 94% 1.1 mph WSW1.8 kmh WSW 4.6 mph7.4 kmh 30.46 in1031.5 mb - 0.00 in0.0 mm 0.02 in0.5 mm
09:10 PM 44.3°F6.8°C 42.7°F5.9°C 94% 5.8 mph SW9.3 kmh SW 8.1 mph13.0 kmh 30.46 in1031.5 mb - 0.00 in0.0 mm 0.02 in0.5 mm
09:20 PM 44.3°F6.8°C 42.7°F5.9°C 94% 3.5 mph SW5.6 kmh SW 5.8 mph9.3 kmh 30.46 in1031.5 mb - 0.00 in0.0 mm 0.02 in0.5 mm
09:30 PM 44.4°F6.9°C 42.8°F6.0°C 94% 4.6 mph SW7.4 kmh SW 6.9 mph11.1 kmh 30.47 in1031.8 mb - 0.00 in0.0 mm 0.02 in0.5 mm
09:40 PM 44.4°F6.9°C 42.8°F6.0°C 94% 3.5 mph W5.6 kmh W 4.6 mph7.4 kmh 30.47 in1031.8 mb - 0.00 in0.0 mm 0.02 in0.5 mm
09:50 PM 44.5°F6.9°C 42.9°F6.1°C 94% 1.1 mph SW1.8 kmh SW 2.3 mph3.7 kmh 30.47 in1031.8 mb - 0.00 in0.0 mm 0.02 in0.5 mm
10:00 PM 44.5°F6.9°C 43.2°F6.2°C 95% 3.5 mph SW5.6 kmh SW 5.8 mph9.3 kmh 30.47 in1031.8 mb - 0.01 in0.3 mm 0.02 in0.5 mm
10:10 PM 44.5°F6.9°C 43.2°F6.2°C 95% 2.3 mph WSW3.7 kmh WSW 4.6 mph7.4 kmh 30.47 in1031.8 mb - 0.00 in0.0 mm 0.02 in0.5 mm
10:20 PM 44.6°F7.0°C 43.2°F6.2°C 95% 2.3 mph WSW3.7 kmh WSW 5.8 mph9.3 kmh 30.47 in1031.8 mb - 0.00 in0.0 mm 0.02 in0.5 mm
10:30 PM 44.6°F7.0°C 43.3°F6.3°C 95% 1.1 mph W1.8 kmh W 4.6 mph7.4 kmh 30.48 in1032.2 mb - 0.00 in0.0 mm 0.02 in0.5 mm
10:40 PM 44.6°F7.0°C 43.3°F6.3°C 95% 5.8 mph SW9.3 kmh SW 8.1 mph13.0 kmh 30.48 in1032.2 mb - 0.00 in0.0 mm 0.02 in0.5 mm
10:50 PM 44.6°F7.0°C 43.3°F6.3°C 95% Calm Calm 1.1 mph1.8 kmh 30.48 in1032.2 mb - 0.00 in0.0 mm 0.02 in0.5 mm
11:00 PM 44.6°F7.0°C 43.3°F6.3°C 95% 1.1 mph SSW1.8 kmh SSW 5.8 mph9.3 kmh 30.48 in1032.2 mb - 0.01 in0.3 mm 0.03 in0.8 mm
11:10 PM 44.6°F7.0°C 43.3°F6.3°C 95% 2.3 mph SW3.7 kmh SW 4.6 mph7.4 kmh 30.47 in1031.8 mb - 0.01 in0.3 mm 0.04 in1.0 mm
11:20 PM 44.6°F7.0°C 43.3°F6.3°C 95% 3.5 mph WSW5.6 kmh WSW 4.6 mph7.4 kmh 30.48 in1032.2 mb - 0.00 in0.0 mm 0.04 in1.0 mm
11:30 PM 44.7°F7.1°C 43.4°F6.3°C 95% 3.5 mph SW5.6 kmh SW 5.8 mph9.3 kmh 30.48 in1032.2 mb - 0.00 in0.0 mm 0.04 in1.0 mm
11:40 PM 44.7°F7.1°C 43.4°F6.3°C 95% 2.3 mph SW3.7 kmh SW 6.9 mph11.1 kmh 30.48 in1032.2 mb - 0.00 in0.0 mm 0.04 in1.0 mm
11:50 PM 44.7°F7.1°C 43.4°F6.3°C 95% 4.6 mph SW7.4 kmh SW 5.8 mph9.3 kmh 30.48 in1032.2 mb - 0.00 in0.0 mm 0.04 in1.0 mm